createdAt,value
2022-11-09T00:00:01.078Z,17
2022-11-09T00:01:01.102Z,18
2022-11-09T00:02:01.079Z,19
2022-11-09T00:04:01.204Z,17
2022-11-09T00:05:01.082Z,16
2022-11-09T00:06:01.123Z,17
2022-11-09T00:07:01.146Z,15
2022-11-09T00:08:01.082Z,16
2022-11-09T00:09:05.923Z,17
2022-11-09T00:10:01.126Z,18
2022-11-09T00:11:01.080Z,17
2022-11-09T00:12:01.081Z,16
2022-11-09T00:13:01.082Z,17
2022-11-09T00:15:01.078Z,18
2022-11-09T00:17:01.113Z,20
2022-11-09T00:18:01.079Z,18
2022-11-09T00:20:01.080Z,16
2022-11-09T00:21:01.080Z,15
2022-11-09T00:22:01.081Z,14
2022-11-09T00:24:01.209Z,15
2022-11-09T00:25:01.080Z,17
2022-11-09T00:26:01.080Z,18
2022-11-09T00:27:01.082Z,19
2022-11-09T00:28:01.081Z,17
2022-11-09T00:29:01.081Z,18
2022-11-09T00:30:01.091Z,16
2022-11-09T00:31:01.081Z,18
2022-11-09T00:32:01.078Z,17
2022-11-09T00:34:01.173Z,14
2022-11-09T00:36:01.079Z,13
2022-11-09T00:37:01.081Z,14
2022-11-09T00:38:01.113Z,15
2022-11-09T00:39:01.080Z,16
2022-11-09T00:40:01.080Z,17
2022-11-09T00:41:01.082Z,16
2022-11-09T00:42:01.082Z,17
2022-11-09T00:44:01.143Z,18
2022-11-09T00:45:01.081Z,18
2022-11-09T00:46:01.083Z,19
2022-11-09T00:47:01.083Z,18
2022-11-09T00:51:01.106Z,17
2022-11-09T00:53:01.220Z,16
2022-11-09T00:56:01.084Z,17
2022-11-09T00:57:01.084Z,15
2022-11-09T00:58:01.083Z,17
2022-11-09T00:59:01.084Z,18
2022-11-09T01:00:01.086Z,19
2022-11-09T01:01:01.121Z,17
2022-11-09T01:02:01.085Z,18
2022-11-09T01:03:01.084Z,16
2022-11-09T01:04:01.083Z,15
2022-11-09T01:05:01.082Z,13
2022-11-09T01:06:01.084Z,14
2022-11-09T01:07:01.209Z,13
2022-11-09T01:09:01.087Z,14
2022-11-09T01:10:01.086Z,13
2022-11-09T01:11:01.088Z,14
2022-11-09T01:12:01.087Z,13
2022-11-09T01:13:01.091Z,14
2022-11-09T01:14:01.089Z,15
2022-11-09T01:15:01.088Z,18
2022-11-09T01:17:02.116Z,20
2022-11-09T01:20:01.090Z,19
2022-11-09T01:22:01.089Z,18
2022-11-09T01:24:01.181Z,16
2022-11-09T01:25:01.091Z,17
2022-11-09T01:26:01.093Z,16
2022-11-09T01:27:01.091Z,17
2022-11-09T01:28:01.093Z,18
2022-11-09T01:30:01.093Z,16
2022-11-09T01:31:01.098Z,15
2022-11-09T01:32:01.093Z,16
2022-11-09T01:34:01.160Z,18
2022-11-09T01:35:01.093Z,19
2022-11-09T01:38:01.090Z,18
2022-11-09T01:39:01.094Z,16
2022-11-09T01:42:01.118Z,17
2022-11-09T01:45:01.223Z,17
2022-11-09T01:46:01.093Z,18
2022-11-09T01:47:01.093Z,17
2022-11-09T01:48:01.093Z,15
2022-11-09T01:51:01.126Z,14
2022-11-09T01:53:01.162Z,16
2022-11-09T01:55:01.095Z,15
2022-11-09T01:56:01.098Z,18
2022-11-09T01:57:01.097Z,17
2022-11-09T02:00:01.124Z,19
2022-11-09T02:01:01.190Z,18
2022-11-09T02:02:01.099Z,19
2022-11-09T02:04:01.227Z,17
2022-11-09T02:05:01.246Z,16
2022-11-09T02:06:01.163Z,14
2022-11-09T02:08:01.099Z,15
2022-11-09T02:10:01.145Z,17
2022-11-09T02:13:01.164Z,14
2022-11-09T02:14:01.101Z,13
2022-11-09T02:15:01.131Z,14
2022-11-09T02:16:01.179Z,16
2022-11-09T02:17:01.103Z,17
2022-11-09T02:18:01.105Z,21
2022-11-09T02:19:01.105Z,22
2022-11-09T02:21:01.103Z,20
2022-11-09T02:22:01.103Z,19
2022-11-09T02:23:01.106Z,18
2022-11-09T02:25:01.143Z,17
2022-11-09T02:26:01.106Z,18
2022-11-09T02:27:01.105Z,19
2022-11-09T02:29:01.108Z,18
2022-11-09T02:30:01.150Z,18
2022-11-09T02:31:01.107Z,19
2022-11-09T02:32:01.134Z,18
2022-11-09T02:33:01.106Z,17
2022-11-09T02:37:01.091Z,18
2022-11-09T02:39:01.095Z,19
2022-11-09T02:43:01.155Z,20
2022-11-09T02:44:01.095Z,19
2022-11-09T02:45:01.093Z,21
2022-11-09T02:47:01.092Z,20
2022-11-09T02:48:01.249Z,19
2022-11-09T02:49:01.093Z,18
2022-11-09T02:51:01.096Z,16
2022-11-09T02:52:01.095Z,15
2022-11-09T02:55:01.261Z,16
2022-11-09T02:56:01.098Z,15
2022-11-09T02:57:01.099Z,16
2022-11-09T03:00:01.134Z,15
2022-11-09T03:01:01.172Z,16
2022-11-09T03:02:01.097Z,17
2022-11-09T03:03:01.099Z,18
2022-11-09T03:04:01.123Z,19
2022-11-09T03:05:01.137Z,20
2022-11-09T03:06:01.099Z,21
2022-11-09T03:07:01.144Z,18
2022-11-09T03:09:01.099Z,17
2022-11-09T03:10:01.128Z,16
2022-11-09T03:11:01.101Z,14
2022-11-09T03:12:01.101Z,17
2022-11-09T03:13:01.100Z,16
2022-11-09T03:14:01.100Z,17
2022-11-09T03:15:01.100Z,18
2022-11-09T03:16:01.104Z,19
2022-11-09T03:17:01.101Z,17
2022-11-09T03:18:01.100Z,16
2022-11-09T03:19:01.104Z,15
2022-11-09T03:20:01.152Z,14
2022-11-09T03:22:01.105Z,15
2022-11-09T03:23:01.101Z,16
2022-11-09T03:25:01.129Z,17
2022-11-09T03:26:01.101Z,20
2022-11-09T03:27:01.102Z,19
2022-11-09T03:28:01.100Z,18
2022-11-09T03:29:01.101Z,20
2022-11-09T03:30:01.100Z,20
2022-11-09T03:31:01.098Z,17
2022-11-09T03:35:01.196Z,18
2022-11-09T03:37:01.120Z,19
2022-11-09T03:40:01.255Z,18
2022-11-09T03:42:01.099Z,17
2022-11-09T03:43:01.099Z,19
2022-11-09T03:45:01.142Z,19
2022-11-09T03:47:01.106Z,20
2022-11-09T03:48:01.100Z,18
2022-11-09T03:49:01.099Z,19
2022-11-09T03:50:01.132Z,18
2022-11-09T03:51:01.099Z,19
2022-11-09T03:54:01.249Z,18
2022-11-09T03:57:01.096Z,17
2022-11-09T03:58:01.097Z,16
2022-11-09T03:59:01.092Z,17
2022-11-09T04:00:01.139Z,18
2022-11-09T04:01:01.097Z,16
2022-11-09T04:02:01.118Z,17
2022-11-09T04:03:01.099Z,18
2022-11-09T04:05:01.093Z,17
2022-11-09T04:08:01.099Z,16
2022-11-09T04:10:01.108Z,14
2022-11-09T04:11:01.107Z,13
2022-11-09T04:12:01.084Z,14
2022-11-09T04:15:01.148Z,15
2022-11-09T04:16:01.113Z,18
2022-11-09T04:17:01.079Z,20
2022-11-09T04:18:01.096Z,19
2022-11-09T04:19:01.084Z,18
2022-11-09T04:20:01.082Z,17
2022-11-09T04:21:01.108Z,18
2022-11-09T04:22:01.087Z,16
2022-11-09T04:23:01.092Z,17
2022-11-09T04:25:01.084Z,18
2022-11-09T04:26:01.137Z,17
2022-11-09T04:27:01.091Z,16
2022-11-09T04:29:01.089Z,18
2022-11-09T04:30:01.088Z,18
2022-11-09T04:31:01.113Z,17
2022-11-09T04:32:01.090Z,18
2022-11-09T04:33:01.085Z,16
2022-11-09T04:34:01.083Z,15
2022-11-09T04:36:01.116Z,14
2022-11-09T04:37:01.089Z,13
2022-11-09T04:38:01.090Z,15
2022-11-09T04:39:01.094Z,16
2022-11-09T04:41:01.166Z,17
2022-11-09T04:43:01.247Z,16
2022-11-09T04:44:01.093Z,18
2022-11-09T04:45:01.094Z,19
2022-11-09T04:46:01.101Z,18
2022-11-09T04:47:01.123Z,19
2022-11-09T04:49:01.097Z,17
2022-11-09T04:50:01.097Z,16
2022-11-09T04:51:01.094Z,17
2022-11-09T04:53:06.701Z,16
2022-11-09T04:54:01.099Z,17
2022-11-09T04:55:01.098Z,16
2022-11-09T04:57:01.097Z,15
2022-11-09T04:58:01.100Z,14
2022-11-09T04:59:01.126Z,15
2022-11-09T05:00:01.101Z,15
2022-11-09T05:01:01.107Z,16
2022-11-09T05:03:01.164Z,18
2022-11-09T05:04:01.135Z,17
2022-11-09T05:05:01.094Z,16
2022-11-09T05:09:01.225Z,15
2022-11-09T05:10:01.099Z,16
2022-11-09T05:11:01.100Z,15
2022-11-09T05:13:01.594Z,14
2022-11-09T05:15:01.170Z,11
2022-11-09T05:16:01.174Z,14
2022-11-09T05:17:01.126Z,15
2022-11-09T05:18:01.101Z,16
2022-11-09T05:19:01.104Z,17
2022-11-09T05:20:01.101Z,19
2022-11-09T05:21:01.107Z,16
2022-11-09T05:22:01.136Z,15
2022-11-09T05:25:01.165Z,16
2022-11-09T05:26:01.104Z,17
2022-11-09T05:27:01.131Z,18
2022-11-09T05:28:01.103Z,17
2022-11-09T05:30:01.105Z,17
2022-11-09T05:32:01.154Z,16
2022-11-09T05:33:01.105Z,18
2022-11-09T05:34:01.105Z,17
2022-11-09T05:35:01.106Z,18
2022-11-09T05:36:01.105Z,19
2022-11-09T05:37:03.597Z,20
2022-11-09T05:39:01.112Z,21
2022-11-09T05:40:01.110Z,19
2022-11-09T05:44:01.173Z,18
2022-11-09T05:45:15.258Z,17
2022-11-09T05:46:05.423Z,18
2022-11-09T05:49:01.113Z,16
2022-11-09T05:50:01.092Z,17
2022-11-09T05:51:01.090Z,18
2022-11-09T05:52:01.090Z,17
2022-11-09T05:53:01.087Z,18
2022-11-09T05:54:01.090Z,21
2022-11-09T05:56:01.091Z,19
2022-11-09T05:57:01.089Z,18
2022-11-09T05:58:01.092Z,17
2022-11-09T05:59:01.098Z,14
2022-11-09T06:00:01.091Z,15
2022-11-09T06:01:01.090Z,14
2022-11-09T06:02:01.198Z,15
2022-11-09T06:05:01.115Z,13
2022-11-09T06:06:05.340Z,15
2022-11-09T06:09:01.094Z,18
2022-11-09T06:10:01.093Z,19
2022-11-09T06:11:01.088Z,20
2022-11-09T06:12:01.093Z,21
2022-11-09T06:13:01.096Z,20
2022-11-09T06:14:01.093Z,17
2022-11-09T06:15:01.092Z,18
2022-11-09T06:16:02.117Z,16
2022-11-09T06:17:01.091Z,17
2022-11-09T06:22:01.115Z,16
2022-11-09T06:23:03.334Z,17
2022-11-09T06:26:01.096Z,16
2022-11-09T06:27:01.097Z,17
2022-11-09T06:29:01.098Z,20
2022-11-09T06:30:01.096Z,20
2022-11-09T06:31:01.097Z,22
2022-11-09T06:32:01.097Z,21
2022-11-09T06:34:01.224Z,18
2022-11-09T06:36:01.097Z,17
2022-11-09T06:37:01.103Z,16
2022-11-09T06:38:01.131Z,14
2022-11-09T06:40:01.107Z,12
2022-11-09T06:41:01.096Z,13
2022-11-09T06:42:01.247Z,15
2022-11-09T06:44:01.157Z,16
2022-11-09T06:45:01.097Z,16
2022-11-09T06:47:01.101Z,17
2022-11-09T06:49:01.098Z,18
2022-11-09T06:52:01.098Z,17
2022-11-09T06:54:01.123Z,14
2022-11-09T06:55:01.102Z,15
2022-11-09T06:56:01.098Z,14
2022-11-09T06:57:01.099Z,15
2022-11-09T06:58:01.099Z,16
2022-11-09T07:00:01.100Z,18
2022-11-09T07:02:01.743Z,19
2022-11-09T07:03:01.146Z,18
2022-11-09T07:04:01.106Z,19
2022-11-09T07:05:01.100Z,17
2022-11-09T07:09:01.099Z,16
2022-11-09T07:10:01.126Z,17
2022-11-09T07:11:01.099Z,18
2022-11-09T07:12:01.131Z,17
2022-11-09T07:13:01.103Z,16
2022-11-09T07:15:01.101Z,16
2022-11-09T07:17:01.097Z,18
2022-11-09T07:19:01.100Z,17
2022-11-09T07:21:01.100Z,16
2022-11-09T07:22:01.100Z,14
2022-11-09T07:23:01.101Z,13
2022-11-09T07:24:01.101Z,15
2022-11-09T07:25:01.098Z,16
2022-11-09T07:26:01.127Z,14
2022-11-09T07:27:01.100Z,15
2022-11-09T07:28:01.103Z,16
2022-11-09T07:30:01.086Z,16
2022-11-09T07:31:01.091Z,15
2022-11-09T07:32:01.093Z,17
2022-11-09T07:36:01.214Z,16
2022-11-09T07:38:01.162Z,18
2022-11-09T07:40:01.087Z,17
2022-11-09T07:43:01.181Z,16
2022-11-09T07:44:01.101Z,14
2022-11-09T07:45:01.102Z,14
2022-11-09T07:46:01.089Z,15
2022-11-09T07:48:01.158Z,17
2022-11-09T07:49:01.128Z,18
2022-11-09T07:50:01.091Z,19
2022-11-09T07:51:01.090Z,18
2022-11-09T07:53:01.219Z,15
2022-11-09T07:54:01.092Z,17
2022-11-09T07:56:01.093Z,18
2022-11-09T07:57:01.157Z,17
2022-11-09T07:59:01.116Z,16
2022-11-09T08:00:01.128Z,16
2022-11-09T08:01:01.181Z,17
2022-11-09T08:02:01.207Z,18
2022-11-09T08:03:01.158Z,17
2022-11-09T08:04:01.113Z,18
2022-11-09T08:06:01.127Z,16
2022-11-09T08:08:01.213Z,17
2022-11-09T08:09:01.176Z,14
2022-11-09T08:11:01.177Z,16
2022-11-09T08:13:01.266Z,18
2022-11-09T08:14:01.141Z,19
2022-11-09T08:15:01.373Z,19
2022-11-09T08:16:01.112Z,18
2022-11-09T08:17:01.093Z,19
2022-11-09T08:18:01.090Z,16
2022-11-09T08:19:01.100Z,14
2022-11-09T08:20:01.088Z,15
2022-11-09T08:21:01.125Z,16
2022-11-09T08:22:01.092Z,17
2022-11-09T08:23:04.212Z,16
2022-11-09T08:24:01.093Z,18
2022-11-09T08:25:01.121Z,19
2022-11-09T08:26:01.092Z,18
2022-11-09T08:28:01.092Z,20
2022-11-09T08:29:01.095Z,19
2022-11-09T08:30:01.095Z,19
2022-11-09T08:33:01.183Z,18
2022-11-09T08:36:01.098Z,17
2022-11-09T08:37:01.091Z,16
2022-11-09T08:38:01.095Z,15
2022-11-09T08:39:01.096Z,14
2022-11-09T08:41:01.095Z,13
2022-11-09T08:42:01.098Z,14
2022-11-09T08:43:01.098Z,13
2022-11-09T08:44:01.097Z,14
2022-11-09T08:45:01.099Z,16
2022-11-09T08:47:01.098Z,17
2022-11-09T08:48:01.104Z,19
2022-11-09T08:50:01.121Z,20
2022-11-09T08:52:01.110Z,21
2022-11-09T08:53:01.093Z,19
2022-11-09T08:58:01.084Z,16
2022-11-09T08:59:01.083Z,17
2022-11-09T09:00:01.084Z,17
2022-11-09T09:01:01.083Z,16
2022-11-09T09:03:01.145Z,17
2022-11-09T09:04:01.088Z,18
2022-11-09T09:05:01.082Z,19
2022-11-09T09:06:01.112Z,20
2022-11-09T09:08:01.085Z,21
2022-11-09T09:09:01.087Z,19
2022-11-09T09:10:01.105Z,17
2022-11-09T09:11:01.084Z,15
2022-11-09T09:12:01.087Z,16
2022-11-09T09:13:01.083Z,15
2022-11-09T09:15:01.084Z,16
2022-11-09T09:16:01.085Z,17
2022-11-09T09:17:01.095Z,15
2022-11-09T09:18:01.086Z,17
2022-11-09T09:19:01.086Z,19
2022-11-09T09:20:01.087Z,20
2022-11-09T09:21:01.086Z,22
2022-11-09T09:22:01.111Z,23
2022-11-09T09:23:01.088Z,22
2022-11-09T09:24:01.084Z,20
2022-11-09T09:25:01.089Z,18
2022-11-09T09:26:01.096Z,16
2022-11-09T09:27:01.089Z,15
2022-11-09T09:28:01.089Z,13
2022-11-09T09:29:01.092Z,14
2022-11-09T09:30:01.089Z,13
2022-11-09T09:31:01.089Z,15
2022-11-09T09:32:01.086Z,16
2022-11-09T09:33:01.091Z,17
2022-11-09T09:35:01.091Z,19
2022-11-09T09:36:01.086Z,17
2022-11-09T09:37:01.096Z,18
2022-11-09T09:39:01.110Z,17
2022-11-09T09:42:01.087Z,16
2022-11-09T09:43:01.093Z,17
2022-11-09T09:44:01.093Z,18
2022-11-09T09:45:01.088Z,17
2022-11-09T09:46:01.092Z,16
2022-11-09T09:48:01.086Z,15
2022-11-09T09:49:01.095Z,16
2022-11-09T09:50:01.153Z,17
2022-11-09T09:52:01.095Z,18
2022-11-09T09:53:24.096Z,17
2022-11-09T09:54:01.163Z,15
2022-11-09T09:55:01.232Z,14
2022-11-09T09:56:01.091Z,13
2022-11-09T09:58:01.102Z,14
2022-11-09T09:59:01.095Z,16
2022-11-09T10:00:01.131Z,16
2022-11-09T10:01:01.096Z,17
2022-11-09T10:02:01.095Z,16
2022-11-09T10:07:01.367Z,17
2022-11-09T10:09:01.097Z,16
2022-11-09T10:10:01.096Z,15
2022-11-09T10:13:01.196Z,17
2022-11-09T10:15:01.096Z,19
2022-11-09T10:18:01.132Z,18
2022-11-09T10:21:01.096Z,17
2022-11-09T10:23:01.202Z,15
2022-11-09T10:43:01.066Z,18
2022-11-09T10:44:00.945Z,17
2022-11-09T10:45:00.947Z,17
2022-11-09T10:51:00.985Z,19
2022-11-09T10:53:01.020Z,20
2022-11-09T10:54:00.942Z,21
2022-11-09T10:55:00.948Z,20
2022-11-09T10:56:00.982Z,19
2022-11-09T10:58:00.950Z,18
2022-11-09T10:59:00.972Z,16
2022-11-09T11:00:00.958Z,15
2022-11-09T11:02:02.305Z,14
2022-11-09T11:03:00.945Z,13
2022-11-09T11:04:00.952Z,15
2022-11-09T11:05:01.015Z,17
2022-11-09T11:08:00.977Z,18
2022-11-09T11:10:00.949Z,17
2022-11-09T11:11:12.993Z,16
2022-11-09T11:13:01.032Z,15
2022-11-09T11:15:00.978Z,13
2022-11-09T11:16:00.951Z,14
2022-11-09T11:17:00.952Z,15
2022-11-09T11:20:00.984Z,16
2022-11-09T11:21:00.954Z,15
2022-11-09T11:22:00.953Z,16
2022-11-09T11:23:00.948Z,17
2022-11-09T11:24:00.980Z,19
2022-11-09T11:25:00.951Z,20
2022-11-09T11:27:00.950Z,24
2022-11-09T11:28:00.951Z,23
2022-11-09T11:29:00.984Z,21
2022-11-09T11:30:00.953Z,19
2022-11-09T11:32:00.987Z,16
2022-11-09T11:33:00.954Z,17
2022-11-09T11:34:00.989Z,19
2022-11-09T11:36:00.953Z,20
2022-11-09T11:38:00.951Z,19
2022-11-09T11:43:01.045Z,18
2022-11-09T11:45:18.782Z,20
2022-11-09T11:47:00.981Z,19
2022-11-09T11:49:00.980Z,18
2022-11-09T11:50:01.025Z,17
2022-11-09T11:51:00.956Z,16
2022-11-09T11:52:00.957Z,15
2022-11-09T11:54:01.091Z,13
2022-11-09T11:55:00.966Z,15
2022-11-09T11:56:00.973Z,16
2022-11-09T11:57:00.959Z,18
2022-11-09T11:58:00.957Z,19
2022-11-09T11:59:00.960Z,20
2022-11-09T12:00:01.004Z,19
2022-11-09T12:01:00.966Z,21
2022-11-09T12:02:00.960Z,20
2022-11-09T12:03:01.002Z,18
2022-11-09T12:04:00.958Z,19
2022-11-09T12:05:00.999Z,18
2022-11-09T12:06:01.038Z,16
2022-11-09T12:07:01.031Z,14
2022-11-09T12:12:00.959Z,16
2022-11-09T12:13:00.959Z,17
2022-11-09T12:14:00.996Z,18
2022-11-09T12:15:00.976Z,19
2022-11-09T12:16:00.962Z,17
2022-11-09T12:18:00.963Z,15
2022-11-09T12:21:01.015Z,16
2022-11-09T12:22:00.965Z,18
2022-11-09T12:23:01.031Z,19
2022-11-09T12:25:00.964Z,20
2022-11-09T12:26:00.997Z,19
2022-11-09T12:27:18.265Z,18
2022-11-09T12:28:00.944Z,19
2022-11-09T12:29:00.960Z,18
2022-11-09T12:30:00.969Z,18
2022-11-09T12:31:01.111Z,17
2022-11-09T12:32:00.965Z,18
2022-11-09T12:33:00.966Z,15
2022-11-09T12:34:00.965Z,16
2022-11-09T12:35:00.965Z,17
2022-11-09T12:36:01.065Z,18
2022-11-09T12:37:00.990Z,16
2022-11-09T12:38:00.968Z,17
2022-11-09T12:39:00.966Z,16
2022-11-09T12:40:00.966Z,15
2022-11-09T12:41:00.994Z,14
2022-11-09T12:44:01.108Z,13
2022-11-09T12:45:00.962Z,13
2022-11-09T12:47:01.036Z,14
2022-11-09T12:48:00.968Z,15
2022-11-09T12:49:00.970Z,16
2022-11-09T12:51:00.970Z,17
2022-11-09T12:52:00.971Z,16
2022-11-09T12:53:00.996Z,17
2022-11-09T12:59:00.973Z,16
2022-11-09T13:00:00.976Z,14
2022-11-09T13:03:00.970Z,13
2022-11-09T13:04:01.038Z,15
2022-11-09T13:05:00.976Z,17
2022-11-09T13:06:02.514Z,16
2022-11-09T13:07:01.066Z,18
2022-11-09T13:09:01.000Z,17
2022-11-09T13:11:00.978Z,19
2022-11-09T13:12:00.977Z,18
2022-11-09T13:13:00.976Z,19
2022-11-09T13:14:00.978Z,20
2022-11-09T13:15:00.977Z,20
2022-11-09T13:16:00.978Z,19
2022-11-09T13:18:00.981Z,17
2022-11-09T13:22:01.045Z,16
2022-11-09T13:23:00.979Z,17
2022-11-09T13:24:03.157Z,16
2022-11-09T13:25:01.004Z,17
2022-11-09T13:26:00.980Z,18
2022-11-09T13:27:00.981Z,20
2022-11-09T13:29:00.980Z,21
2022-11-09T13:30:00.980Z,19
2022-11-09T13:31:00.987Z,18
2022-11-09T13:32:00.980Z,16
2022-11-09T13:33:00.981Z,14
2022-11-09T13:34:00.980Z,13
2022-11-09T13:35:00.982Z,15
2022-11-09T13:37:00.983Z,16
2022-11-09T13:39:00.983Z,17
2022-11-09T13:40:00.982Z,16
2022-11-09T13:41:01.009Z,15
2022-11-09T13:42:00.983Z,18
2022-11-09T13:44:00.978Z,19
2022-11-09T13:45:00.982Z,18
2022-11-09T13:46:00.980Z,19
2022-11-09T13:47:00.981Z,17
2022-11-09T13:49:00.978Z,16
2022-11-09T13:50:00.982Z,17
2022-11-09T13:51:00.982Z,15
2022-11-09T13:54:01.052Z,16
2022-11-09T13:55:00.983Z,14
2022-11-09T13:56:00.985Z,17
2022-11-09T13:59:01.008Z,16
2022-11-09T14:00:01.003Z,17
2022-11-09T14:01:00.987Z,15
2022-11-09T14:02:01.025Z,16
2022-11-09T14:03:00.989Z,17
2022-11-09T14:04:00.988Z,18
2022-11-09T14:05:00.988Z,17
2022-11-09T14:06:00.987Z,19
2022-11-09T14:07:01.035Z,18
2022-11-09T14:08:00.988Z,17
2022-11-09T14:09:00.993Z,16
2022-11-09T14:10:00.988Z,17
2022-11-09T14:11:00.990Z,16
2022-11-09T14:12:00.990Z,14
2022-11-09T14:13:00.989Z,16
2022-11-09T14:14:03.259Z,17
2022-11-09T14:15:01.137Z,18
2022-11-09T14:16:00.996Z,17
2022-11-09T14:17:00.991Z,18
2022-11-09T14:20:00.995Z,15
2022-11-09T14:24:01.056Z,14
2022-11-09T14:25:00.992Z,17
2022-11-09T14:26:00.989Z,15
2022-11-09T14:29:00.997Z,16
2022-11-09T14:30:01.006Z,15
2022-11-09T14:31:01.020Z,18
2022-11-09T14:35:01.125Z,19
2022-11-09T14:36:00.998Z,18
2022-11-09T14:37:04.824Z,19
2022-11-09T14:39:00.997Z,18
2022-11-09T14:41:00.998Z,19
2022-11-09T14:45:01.066Z,18
2022-11-09T14:46:00.998Z,15
2022-11-09T14:47:01.115Z,16
2022-11-09T14:48:01.001Z,18
2022-11-09T14:49:00.996Z,17
2022-11-09T14:51:01.003Z,19
2022-11-09T14:52:01.003Z,20
2022-11-09T14:53:01.000Z,19
2022-11-09T14:54:01.000Z,20
2022-11-09T14:57:01.000Z,19
2022-11-09T14:58:01.002Z,20
2022-11-09T15:00:00.999Z,20
2022-11-09T15:01:00.996Z,19
2022-11-09T15:02:01.001Z,18
2022-11-09T15:04:01.268Z,17
2022-11-09T15:05:01.001Z,18
2022-11-09T15:06:01.000Z,17
2022-11-09T15:07:01.024Z,18
2022-11-09T15:08:00.996Z,17
2022-11-09T15:10:01.090Z,16
2022-11-09T15:11:01.038Z,15
2022-11-09T15:13:01.066Z,14
2022-11-09T15:14:01.001Z,16
2022-11-09T15:15:01.002Z,16
2022-11-09T15:17:01.001Z,14
2022-11-09T15:18:01.010Z,17
2022-11-09T15:19:01.004Z,16
2022-11-09T15:20:01.112Z,15
2022-11-09T15:23:01.159Z,14
2022-11-09T15:25:01.001Z,15
2022-11-09T15:26:01.001Z,16
2022-11-09T15:27:01.002Z,17
2022-11-09T15:28:01.039Z,16
2022-11-09T15:29:01.002Z,19
2022-11-09T15:30:01.003Z,19
2022-11-09T15:31:01.003Z,18
2022-11-09T15:32:01.014Z,19
2022-11-09T15:33:01.030Z,17
2022-11-09T15:34:01.003Z,15
2022-11-09T15:35:01.004Z,16
2022-11-09T15:36:01.171Z,17
2022-11-09T15:37:01.068Z,15
2022-11-09T15:38:01.039Z,17
2022-11-09T15:39:01.003Z,18
2022-11-09T15:41:01.004Z,19
2022-11-09T15:43:01.165Z,17
2022-11-09T15:44:01.005Z,19
2022-11-09T15:45:01.038Z,19
2022-11-09T15:46:01.004Z,18
2022-11-09T15:47:01.005Z,19
2022-11-09T15:48:01.028Z,20
2022-11-09T15:49:01.005Z,19
2022-11-09T15:50:01.020Z,17
2022-11-09T15:52:01.030Z,19
2022-11-09T15:53:01.252Z,18
2022-11-09T15:54:01.005Z,16
2022-11-09T15:55:01.005Z,17
2022-11-09T15:56:01.008Z,16
2022-11-09T15:57:01.008Z,15
2022-11-09T15:58:01.007Z,16
2022-11-09T15:59:01.035Z,17
2022-11-09T16:00:01.011Z,17
2022-11-09T16:02:01.008Z,18
2022-11-09T16:03:01.037Z,17
2022-11-09T16:05:01.004Z,16
2022-11-09T16:06:01.011Z,17
2022-11-09T16:08:01.077Z,18
2022-11-09T16:09:01.008Z,19
2022-11-09T16:12:01.012Z,20
2022-11-09T16:15:01.174Z,20
2022-11-09T16:16:01.088Z,18
2022-11-09T16:17:01.011Z,17
2022-11-09T16:18:01.015Z,16
2022-11-09T16:19:01.012Z,15
2022-11-09T16:20:01.049Z,17
2022-11-09T16:21:01.013Z,15
2022-11-09T16:23:01.077Z,17
2022-11-09T16:24:01.041Z,16
2022-11-09T16:25:01.018Z,15
2022-11-09T16:26:01.015Z,16
2022-11-09T16:27:01.013Z,17
2022-11-09T16:28:01.013Z,16
2022-11-09T16:29:01.020Z,17
2022-11-09T16:30:01.018Z,16
2022-11-09T16:33:01.079Z,15
2022-11-09T16:35:23.753Z,14
2022-11-09T16:36:01.006Z,15
2022-11-09T16:39:01.019Z,14
2022-11-09T16:40:01.106Z,15
2022-11-09T16:42:01.018Z,14
2022-11-09T16:43:01.017Z,17
2022-11-09T16:44:01.026Z,18
2022-11-09T16:45:01.018Z,19
2022-11-09T16:46:01.019Z,20
2022-11-09T16:47:01.018Z,19
2022-11-09T16:49:01.021Z,17
2022-11-09T16:51:01.083Z,16
2022-11-09T16:52:01.021Z,18
2022-11-09T16:53:01.028Z,15
2022-11-09T16:54:01.155Z,16
2022-11-09T16:55:01.015Z,17
2022-11-09T16:56:01.045Z,16
2022-11-09T16:57:01.018Z,14
2022-11-09T17:00:01.023Z,13
2022-11-09T17:01:11.239Z,14
2022-11-09T17:02:01.058Z,17
2022-11-09T17:03:01.022Z,19
2022-11-09T17:04:01.020Z,18
2022-11-09T17:07:01.045Z,17
2022-11-09T17:08:01.021Z,14
2022-11-09T17:09:01.020Z,15
2022-11-09T17:10:01.021Z,17
2022-11-09T17:11:01.018Z,18
2022-11-09T17:12:01.043Z,20
2022-11-09T17:13:01.021Z,22
2022-11-09T17:15:01.085Z,22
2022-11-09T17:16:01.021Z,20
2022-11-09T17:18:01.021Z,18
2022-11-09T17:19:01.126Z,17
2022-11-09T17:20:01.020Z,15
2022-11-09T17:22:01.021Z,14
2022-11-09T17:23:01.020Z,15
2022-11-09T17:25:01.024Z,16
2022-11-09T17:26:01.022Z,17
2022-11-09T17:27:01.015Z,16
2022-11-09T17:28:01.045Z,15
2022-11-09T17:29:01.021Z,16
2022-11-09T17:30:01.021Z,16
2022-11-09T17:31:01.046Z,15
2022-11-09T17:32:01.119Z,17
2022-11-09T17:33:01.020Z,18
2022-11-09T17:34:01.554Z,17
2022-11-09T17:35:01.048Z,16
2022-11-09T17:36:01.021Z,17
2022-11-09T17:39:01.027Z,16
2022-11-09T17:42:01.048Z,15
2022-11-09T17:45:01.109Z,16
2022-11-09T17:48:01.052Z,17
2022-11-09T17:49:03.555Z,18
2022-11-09T17:50:01.021Z,16
2022-11-09T17:51:01.022Z,15
2022-11-09T17:52:01.052Z,18
2022-11-09T17:53:01.021Z,16
2022-11-09T17:55:01.023Z,20
2022-11-09T17:56:01.028Z,23
2022-11-09T17:59:01.056Z,24
2022-11-09T18:00:01.022Z,24
2022-11-09T18:01:01.063Z,22
2022-11-09T18:02:01.061Z,19
2022-11-09T18:04:05.498Z,18
2022-11-09T18:05:01.025Z,16
2022-11-09T18:06:01.035Z,15
2022-11-09T18:07:01.121Z,16
2022-11-09T18:08:01.025Z,15
2022-11-09T18:09:27.131Z,16
2022-11-09T18:10:01.005Z,17
2022-11-09T18:11:01.027Z,16
2022-11-09T18:12:01.066Z,15
2022-11-09T18:13:01.026Z,17
2022-11-09T18:14:01.027Z,18
2022-11-09T18:15:01.026Z,17
2022-11-09T18:16:01.026Z,19
2022-11-09T18:17:01.090Z,22
2022-11-09T18:18:01.029Z,21
2022-11-09T18:19:01.031Z,19
2022-11-09T18:21:01.027Z,16
2022-11-09T18:23:01.121Z,15
2022-11-09T18:24:01.028Z,16
2022-11-09T18:25:01.028Z,17
2022-11-09T18:26:01.031Z,19
2022-11-09T18:27:01.072Z,17
2022-11-09T18:28:01.043Z,18
2022-11-09T18:29:01.033Z,19
2022-11-09T18:30:01.031Z,17
2022-11-09T18:31:01.031Z,16
2022-11-09T18:32:01.150Z,17
2022-11-09T18:33:01.054Z,15
2022-11-09T18:34:01.030Z,13
2022-11-09T18:35:01.033Z,14
2022-11-09T18:36:01.032Z,16
2022-11-09T18:37:01.033Z,15
2022-11-09T18:38:01.064Z,16
2022-11-09T18:39:01.034Z,19
2022-11-09T18:40:01.035Z,20
2022-11-09T18:41:01.036Z,19
2022-11-09T18:42:01.039Z,20
2022-11-09T18:44:01.193Z,17
2022-11-09T18:45:01.187Z,18
2022-11-09T18:46:01.131Z,19
2022-11-09T18:47:05.212Z,20
2022-11-09T18:49:01.092Z,21
2022-11-09T18:50:01.181Z,19
2022-11-09T18:56:04.830Z,16
2022-11-09T18:59:01.083Z,18
2022-11-09T19:00:01.039Z,19
2022-11-09T19:02:01.043Z,18
2022-11-09T19:03:01.091Z,19
2022-11-09T19:05:01.095Z,18
2022-11-09T19:06:01.059Z,20
2022-11-09T19:08:01.045Z,18
2022-11-09T19:11:01.188Z,17
2022-11-09T19:12:01.047Z,18
2022-11-09T19:13:01.328Z,19
2022-11-09T19:15:01.051Z,18
2022-11-09T19:16:01.048Z,17
2022-11-09T19:18:01.044Z,16
2022-11-09T19:19:01.040Z,17
2022-11-09T19:20:01.079Z,19
2022-11-09T19:21:01.067Z,20
2022-11-09T19:22:01.045Z,21
2022-11-09T19:23:01.045Z,20
2022-11-09T19:26:01.045Z,19
2022-11-09T19:27:01.046Z,18
2022-11-09T19:28:01.046Z,19
2022-11-09T19:29:01.049Z,18
2022-11-09T19:30:04.941Z,18
2022-11-09T19:31:01.047Z,20
2022-11-09T19:32:01.046Z,22
2022-11-09T19:35:01.207Z,21
2022-11-09T19:36:28.444Z,20
2022-11-09T19:37:01.050Z,18
2022-11-09T19:39:01.054Z,17
2022-11-09T19:40:01.086Z,19
2022-11-09T19:41:01.050Z,20
2022-11-09T19:42:01.052Z,21
2022-11-09T19:44:01.117Z,20
2022-11-09T19:45:01.046Z,18
2022-11-09T19:46:01.195Z,19
2022-11-09T19:47:01.046Z,18
2022-11-09T19:49:01.055Z,20
2022-11-09T19:50:01.084Z,18
2022-11-09T19:51:01.049Z,17
2022-11-09T19:54:01.137Z,16
2022-11-09T19:55:01.223Z,18
2022-11-09T19:57:01.048Z,19
2022-11-09T19:58:01.048Z,18
2022-11-09T20:00:01.058Z,16
2022-11-09T20:01:01.064Z,18
2022-11-09T20:03:01.198Z,16
2022-11-09T20:04:01.406Z,15
2022-11-09T20:05:01.052Z,16
2022-11-09T20:06:01.052Z,14
2022-11-09T20:07:01.083Z,12
2022-11-09T20:08:01.047Z,15
2022-11-09T20:09:01.054Z,17
2022-11-09T20:10:01.080Z,19
2022-11-09T20:11:01.049Z,20
2022-11-09T20:12:01.058Z,21
2022-11-09T20:13:01.050Z,19